Time;durP1;ratioP1;P1;durP2;ratioP2;P2;SDS_P1;SDS_P2;PMS_P1;PMS_P2;Temp;Humidity;BMP_temperature;BMP_pressure;BME280_temperature;BME280_humidity;BME280_pressure;Samples;Min_cycle;Max_cycle;Signal;HPM_P1;HPM_P2
2022/01/04 00:02:18;;;;;;;2.17;0.90;;;8.80;99.90;;;;;;5061871;28;20408;-63
2022/01/04 00:04:44;;;;;;;3.20;1.10;;;8.80;99.90;;;;;;5078599;28;20033;-63
2022/01/04 00:07:10;;;;;;;2.25;0.90;;;8.90;99.90;;;;;;5079757;28;20385;-63
2022/01/04 00:09:40;;;;;;;2.17;0.88;;;8.80;99.90;;;;;;5079247;28;20349;-63
2022/01/04 00:14:52;;;;;;;2.25;1.00;;;8.80;99.90;;;;;;5079582;28;20107;-64
2022/01/04 00:17:18;;;;;;;2.25;1.20;;;8.80;99.90;;;;;;5060994;28;20353;-64
2022/01/04 00:19:44;;;;;;;3.65;1.20;;;8.90;99.90;;;;;;5078299;28;20032;-62
2022/01/04 00:22:10;;;;;;;1.80;0.90;;;8.90;99.90;;;;;;5061624;28;20032;-62
2022/01/04 00:24:36;;;;;;;2.17;0.90;;;8.80;99.90;;;;;;5078403;28;20020;-63
2022/01/04 00:27:03;;;;;;;4.03;1.13;;;8.80;99.90;;;;;;5079276;28;20292;-63
2022/01/04 00:29:29;;;;;;;2.25;1.00;;;8.80;99.90;;;;;;5078240;28;20032;-63
2022/01/04 00:31:54;;;;;;;3.30;1.20;;;8.80;99.90;;;;;;5078843;28;20045;-63
2022/01/04 00:34:20;;;;;;;2.60;1.15;;;8.80;99.90;;;;;;5078907;28;20032;-63
2022/01/04 00:36:46;;;;;;;1.33;1.05;;;8.70;99.90;;;;;;5077899;28;20067;-63
2022/01/04 00:39:12;;;;;;;3.42;1.30;;;8.70;99.90;;;;;;5078004;28;20293;-63
2022/01/04 00:41:38;;;;;;;2.80;1.48;;;8.70;99.90;;;;;;5078038;28;20025;-63
2022/01/04 00:44:05;;;;;;;2.88;1.30;;;8.80;99.90;;;;;;5078676;28;20025;-63
2022/01/04 00:46:31;;;;;;;3.65;1.20;;;8.80;99.90;;;;;;5078488;28;20024;-63
2022/01/04 00:49:10;;;;;;;2.42;1.55;;;8.80;99.90;;;;;;5078430;28;20048;-63
2022/01/04 00:51:48;;;;;;;1.58;1.27;;;8.80;99.90;;;;;;5078441;28;20041;-62
2022/01/04 00:54:16;;;;;;;3.88;1.50;;;8.70;99.90;;;;;;5078355;28;20028;-63
2022/01/04 00:56:43;;;;;;;3.33;1.63;;;8.70;99.90;;;;;;5078951;28;20024;-64
2022/01/04 00:59:09;;;;;;;3.05;1.60;;;8.80;99.90;;;;;;5077391;28;20111;-63
2022/01/04 01:01:37;;;;;;;1.73;1.50;;;8.80;99.90;;;;;;5078213;28;20296;-62
2022/01/04 01:04:04;;;;;;;2.03;1.40;;;8.80;99.90;;;;;;5077391;28;20025;-62
2022/01/04 01:06:30;;;;;;;3.22;1.65;;;8.80;99.90;;;;;;5078584;28;20050;-62
2022/01/04 01:08:56;;;;;;;1.60;1.33;;;8.60;99.90;;;;;;5078054;28;20040;-62
2022/01/04 01:11:22;;;;;;;3.40;1.67;;;8.70;99.90;;;;;;5078065;28;20277;-61
2022/01/04 01:13:48;;;;;;;2.83;1.60;;;8.60;99.90;;;;;;5077946;28;20033;-61
2022/01/04 01:16:14;;;;;;;3.63;1.58;;;8.40;99.90;;;;;;5077939;28;20032;-63
2022/01/04 01:18:40;;;;;;;2.83;2.03;;;8.40;99.90;;;;;;5077248;28;20047;-62
2022/01/04 01:21:07;;;;;;;3.45;1.90;;;8.40;99.90;;;;;;5077188;28;20395;-61
2022/01/04 01:23:34;;;;;;;3.55;1.77;;;8.40;99.90;;;;;;5077202;28;20028;-62
2022/01/04 01:26:02;;;;;;;1.92;1.58;;;8.50;99.90;;;;;;5078057;28;20408;-61
2022/01/04 01:28:28;;;;;;;5.60;1.98;;;8.50;99.90;;;;;;5076949;28;20071;-61
2022/01/04 01:30:54;;;;;;;2.67;1.65;;;8.40;99.90;;;;;;5077985;28;20041;-62
2022/01/04 01:33:21;;;;;;;2.33;1.63;;;8.40;99.90;;;;;;5077860;28;20346;-62
2022/01/04 01:35:46;;;;;;;3.65;1.80;;;8.50;99.90;;;;;;5077649;28;20040;-64
2022/01/04 01:38:14;;;;;;;5.43;2.00;;;8.50;99.90;;;;;;5077331;28;20044;-62
2022/01/04 01:40:40;;;;;;;5.10;2.00;;;8.50;99.90;;;;;;5078199;28;20062;-61
2022/01/04 01:43:07;;;;;;;3.70;2.00;;;8.50;99.90;;;;;;5077961;28;20377;-62
2022/01/04 01:45:33;;;;;;;2.47;1.80;;;8.50;99.90;;;;;;5076884;28;20036;-62
2022/01/04 01:47:59;;;;;;;4.80;2.17;;;8.50;99.90;;;;;;5076673;28;20029;-62
2022/01/04 01:50:25;;;;;;;2.47;2.00;;;8.50;99.90;;;;;;5077465;28;20048;-62
2022/01/04 01:52:52;;;;;;;3.08;2.35;;;8.50;99.90;;;;;;5077275;28;20039;-62
2022/01/04 01:55:20;;;;;;;3.15;2.63;;;8.40;99.90;;;;;;5077805;28;20261;-62
2022/01/04 01:57:47;;;;;;;2.45;2.25;;;8.50;99.90;;;;;;5077349;28;20025;-61
2022/01/04 02:00:15;;;;;;;3.88;2.30;;;8.50;99.90;;;;;;5077945;28;20102;-61
2022/01/04 02:02:41;;;;;;;3.80;2.95;;;8.50;99.90;;;;;;5077258;28;20419;-62
2022/01/04 02:05:08;;;;;;;3.60;2.40;;;8.50;99.90;;;;;;5077267;28;20111;-62
2022/01/04 02:07:35;;;;;;;4.13;2.97;;;8.50;99.90;;;;;;5077297;28;20024;-62
2022/01/04 02:10:06;;;;;;;4.15;3.22;;;8.50;99.90;;;;;;5076549;28;20032;-62
2022/01/04 02:12:38;;;;;;;3.97;2.78;;;8.60;99.90;;;;;;5077234;28;20029;-62
2022/01/04 02:15:10;;;;;;;5.87;3.50;;;8.70;99.90;;;;;;5077245;28;20327;-62
2022/01/04 02:17:36;;;;;;;3.97;3.00;;;8.70;99.90;;;;;;5077366;28;20388;-63
2022/01/04 02:20:03;;;;;;;3.78;3.30;;;8.60;99.90;;;;;;5077047;28;20463;-63
2022/01/04 02:22:31;;;;;;;4.30;3.30;;;8.60;99.90;;;;;;5077001;28;20029;-62
2022/01/04 02:24:57;;;;;;;4.00;3.30;;;8.60;99.90;;;;;;5076293;28;20281;-62
2022/01/04 02:27:24;;;;;;;6.22;3.60;;;8.50;99.90;;;;;;5076210;28;20056;-62
2022/01/04 02:29:50;;;;;;;3.90;3.50;;;8.50;99.90;;;;;;5076300;28;20036;-62
2022/01/04 02:32:16;;;;;;;4.75;4.35;;;8.60;99.90;;;;;;5077256;28;20032;-63
2022/01/04 02:34:48;;;;;;;4.93;4.30;;;8.70;99.90;;;;;;5076957;28;20116;-62
2022/01/04 02:37:21;;;;;;;4.65;4.22;;;8.70;99.90;;;;;;5076891;28;20053;-62
2022/01/04 02:39:47;;;;;;;;;;;8.70;99.90;;;;;;5077018;28;20033;-63
2022/01/04 02:42:13;;;;;;;5.68;4.50;;;8.60;99.90;;;;;;5076712;28;20232;-63
2022/01/04 02:44:39;;;;;;;6.18;4.55;;;8.60;99.90;;;;;;5077037;28;20414;-63
2022/01/04 02:47:05;;;;;;;5.70;5.20;;;8.60;99.90;;;;;;5076803;28;20270;-63
2022/01/04 02:49:31;;;;;;;6.47;5.03;;;8.60;99.90;;;;;;5076817;28;20181;-62
2022/01/04 02:51:57;;;;;;;6.20;4.97;;;8.60;99.90;;;;;;5075992;28;20358;-63
2022/01/04 02:54:23;;;;;;;6.18;5.03;;;8.50;99.90;;;;;;5076432;28;20036;-63
2022/01/04 02:56:48;;;;;;;5.35;4.82;;;8.60;99.90;;;;;;5076140;28;20048;-63
2022/01/04 02:59:15;;;;;;;5.30;4.80;;;8.50;99.90;;;;;;5075775;28;20403;-62
2022/01/04 03:01:41;;;;;;;5.95;5.35;;;8.60;99.90;;;;;;5076688;28;20037;-62
2022/01/04 03:04:07;;;;;;;5.90;5.28;;;8.60;99.90;;;;;;5075981;28;20396;-62
2022/01/04 03:06:34;;;;;;;6.60;5.90;;;8.60;99.90;;;;;;5059457;28;20036;-60
2022/01/04 03:09:01;;;;;;;5.93;5.30;;;8.60;99.90;;;;;;5076599;28;20299;-62
2022/01/04 03:11:27;;;;;;;6.35;5.55;;;8.50;99.90;;;;;;5059303;28;20111;-62
2022/01/04 03:13:52;;;;;;;8.00;6.20;;;8.50;99.90;;;;;;5076587;28;20083;-61
2022/01/04 03:16:18;;;;;;;8.90;6.20;;;8.40;99.90;;;;;;5076618;28;20051;-62
2022/01/04 03:19:26;;;;;;;6.50;5.82;;;8.40;99.90;;;;;;5075955;28;20135;-62
2022/01/04 03:21:34;;;;;;;8.73;7.13;;;8.40;99.90;;;;;;5068652;28;20134;-62
2022/01/04 03:24:01;;;;;;;8.15;6.88;;;8.40;99.90;;;;;;5076461;28;20037;-62
2022/01/04 03:26:27;;;;;;;10.23;6.72;;;8.40;99.90;;;;;;5076477;28;20040;-61
2022/01/04 03:28:53;;;;;;;8.88;7.85;;;8.40;99.90;;;;;;5076398;28;20044;-62
2022/01/04 03:31:19;;;;;;;9.07;7.25;;;8.40;99.90;;;;;;5076454;28;20300;-61
2022/01/04 03:33:45;;;;;;;8.05;7.13;;;8.40;99.90;;;;;;5059072;28;20043;-62
2022/01/04 03:36:12;;;;;;;8.30;7.30;;;8.40;99.90;;;;;;5076201;28;20147;-62
2022/01/04 03:38:37;;;;;;;7.15;6.45;;;8.40;99.90;;;;;;5076299;28;20048;-62
2022/01/04 03:41:07;;;;;;;7.25;6.40;;;8.30;99.90;;;;;;5076313;28;20072;-62
2022/01/04 03:43:34;;;;;;;8.32;6.68;;;8.40;99.90;;;;;;5075526;28;20431;-63
2022/01/04 03:46:00;;;;;;;7.28;6.20;;;8.40;99.90;;;;;;5076292;28;20051;-63
2022/01/04 03:48:26;;;;;;;6.88;6.07;;;8.40;99.90;;;;;;5076401;28;20036;-63
2022/01/04 03:50:52;;;;;;;7.13;6.30;;;8.50;99.90;;;;;;5076308;28;20422;-62
2022/01/04 03:53:17;;;;;;;6.13;5.53;;;8.50;99.90;;;;;;5079188;28;20028;-62
2022/01/04 03:55:43;;;;;;;5.63;5.03;;;8.50;99.90;;;;;;5079794;28;20032;-63
2022/01/04 03:58:09;;;;;;;6.03;5.43;;;8.40;99.90;;;;;;5079311;28;20129;-63
2022/01/04 04:00:35;;;;;;;5.97;5.38;;;8.40;99.90;;;;;;5045854;28;20396;-62
2022/01/04 04:03:01;;;;;;;6.00;5.35;;;8.40;99.90;;;;;;5079616;28;20419;-63
2022/01/04 04:05:26;;;;;;;5.90;5.13;;;8.40;99.90;;;;;;5079570;28;20032;-61
2022/01/04 04:07:52;;;;;;;6.93;5.43;;;8.40;99.90;;;;;;5078904;28;20055;-63
2022/01/04 04:10:18;;;;;;;7.70;5.70;;;8.40;99.90;;;;;;5079551;28;20032;-63
2022/01/04 04:12:44;;;;;;;6.05;5.45;;;8.40;99.90;;;;;;5079465;28;20047;-63
2022/01/04 04:15:11;;;;;;;5.80;5.20;;;8.50;99.90;;;;;;5079421;28;20304;-62
2022/01/04 04:17:37;;;;;;;7.00;5.10;;;8.50;99.90;;;;;;5079316;28;20043;-63
2022/01/04 04:20:05;;;;;;;5.38;4.85;;;8.40;99.90;;;;;;5079309;28;20036;-62
2022/01/04 04:22:31;;;;;;;6.75;5.13;;;8.40;99.90;;;;;;5079057;28;20119;-62
2022/01/04 04:24:57;;;;;;;5.82;4.70;;;8.40;99.90;;;;;;5079232;28;20029;-62
2022/01/04 04:27:23;;;;;;;5.20;4.70;;;8.40;99.90;;;;;;5079711;28;20028;-62
2022/01/04 04:29:48;;;;;;;4.97;4.57;;;8.30;99.90;;;;;;5079155;28;20039;-62
2022/01/04 04:32:14;;;;;;;4.63;4.22;;;8.40;99.90;;;;;;5078420;28;20075;-62
2022/01/04 04:34:40;;;;;;;5.18;4.68;;;8.30;99.90;;;;;;5079083;28;20041;-63
2022/01/04 04:37:06;;;;;;;6.78;4.60;;;8.40;99.90;;;;;;5078840;28;20048;-62
2022/01/04 04:39:32;;;;;;;6.00;4.85;;;8.40;99.90;;;;;;5078866;28;20342;-63
2022/01/04 04:41:58;;;;;;;5.28;4.72;;;8.30;99.90;;;;;;5078931;28;20028;-62
2022/01/04 04:44:24;;;;;;;4.82;4.38;;;8.30;99.90;;;;;;5078085;28;20029;-62
2022/01/04 04:46:50;;;;;;;5.75;4.10;;;8.40;99.90;;;;;;5078902;28;20024;-63
2022/01/04 04:49:16;;;;;;;4.85;4.30;;;8.40;99.90;;;;;;5077923;28;20032;-62
2022/01/04 04:51:42;;;;;;;5.13;4.57;;;8.50;99.90;;;;;;5077945;28;20033;-63
2022/01/04 04:54:09;;;;;;;4.85;4.35;;;8.50;99.90;;;;;;5078640;28;20327;-62
2022/01/04 04:56:38;;;;;;;4.70;4.30;;;8.50;99.90;;;;;;5078615;28;20037;-63
2022/01/04 04:59:08;;;;;;;4.30;3.90;;;8.60;99.90;;;;;;5078557;28;20037;-63
2022/01/04 05:01:34;;;;;;;4.78;4.28;;;8.60;99.90;;;;;;5078403;28;20032;-62
2022/01/04 05:04:00;;;;;;;4.30;3.90;;;8.60;99.90;;;;;;5077608;28;20449;-61
2022/01/04 05:06:26;;;;;;;4.72;4.30;;;8.50;99.90;;;;;;5078449;28;20021;-61
2022/01/04 05:08:53;;;;;;;4.45;4.05;;;8.40;99.90;;;;;;5078567;28;20396;-62
2022/01/04 05:11:19;;;;;;;5.75;4.13;;;8.40;99.90;;;;;;5077514;28;20388;-62
2022/01/04 05:13:45;;;;;;;5.80;4.50;;;8.40;99.90;;;;;;5077518;28;20036;-61
2022/01/04 05:16:11;;;;;;;6.15;4.47;;;8.40;99.90;;;;;;5077554;28;20032;-62
2022/01/04 05:18:37;;;;;;;4.93;4.47;;;8.40;99.90;;;;;;5078223;28;20043;-62
2022/01/04 05:21:04;;;;;;;5.22;4.45;;;8.40;99.90;;;;;;5078147;28;20040;-62
2022/01/04 05:23:30;;;;;;;7.15;4.70;;;8.40;99.90;;;;;;5078050;28;20016;-62
2022/01/04 05:25:56;;;;;;;5.47;4.53;;;8.40;99.90;;;;;;5078047;28;20033;-62
2022/01/04 05:28:22;;;;;;;4.78;4.20;;;8.40;99.90;;;;;;5077936;28;20090;-63
2022/01/04 05:30:48;;;;;;;5.47;4.50;;;8.40;99.90;;;;;;5077964;28;20295;-62
2022/01/04 05:33:14;;;;;;;4.47;4.07;;;8.40;99.90;;;;;;5077909;28;20052;-63
2022/01/04 05:35:40;;;;;;;5.25;4.72;;;8.40;99.90;;;;;;5060470;28;20383;-63
2022/01/04 05:38:06;;;;;;;6.70;4.25;;;8.40;99.90;;;;;;5060266;28;20068;-63
2022/01/04 05:40:32;;;;;;;5.07;4.32;;;8.60;99.90;;;;;;5077728;28;20281;-63
2022/01/04 05:42:58;;;;;;;4.43;4.03;;;8.50;99.90;;;;;;5077747;28;20020;-63
2022/01/04 05:45:24;;;;;;;4.80;4.13;;;8.50;99.90;;;;;;5060231;28;20036;-62
2022/01/04 05:47:50;;;;;;;7.70;4.43;;;8.50;99.90;;;;;;5076993;28;20406;-60
2022/01/04 05:50:16;;;;;;;5.95;4.50;;;8.40;99.90;;;;;;5077583;28;20429;-62
2022/01/04 05:52:42;;;;;;;6.15;4.55;;;8.40;99.90;;;;;;5077520;28;20350;-62
2022/01/04 05:55:08;;;;;;;5.13;4.15;;;8.50;99.90;;;;;;5076985;28;20037;-63
2022/01/04 05:57:34;;;;;;;5.28;4.43;;;8.50;99.90;;;;;;5077159;28;20323;-62
2022/01/04 06:00:00;;;;;;;5.63;4.60;;;8.50;99.90;;;;;;5077382;28;20040;-63
2022/01/04 06:02:26;;;;;;;6.25;4.72;;;8.50;99.90;;;;;;5077335;28;20044;-62
2022/01/04 06:04:52;;;;;;;5.20;4.43;;;8.50;99.90;;;;;;5077256;28;20036;-63
2022/01/04 06:07:18;;;;;;;7.07;4.72;;;8.40;99.90;;;;;;5077226;28;20048;-63
2022/01/04 06:09:47;;;;;;;6.22;4.95;;;8.40;99.90;;;;;;5076419;28;20044;-63
2022/01/04 06:15:10;;;;;;;8.47;5.57;;;8.50;99.90;;;;;;5060917;28;20457;-63
2022/01/04 06:17:39;;;;;;;7.47;5.70;;;8.50;99.90;;;;;;5077160;28;20056;-63
2022/01/04 06:20:06;;;;;;;7.00;5.50;;;8.60;99.90;;;;;;5076586;28;20029;-63
2022/01/04 06:22:33;;;;;;;7.00;5.97;;;8.40;99.90;;;;;;5076330;28;20063;-63
2022/01/04 06:24:59;;;;;;;8.52;6.18;;;8.30;99.90;;;;;;5076334;28;20033;-62
2022/01/04 06:27:25;;;;;;;9.48;5.90;;;8.30;99.90;;;;;;5076316;28;20024;-62
2022/01/04 06:29:52;;;;;;;8.35;6.03;;;8.30;99.90;;;;;;5076639;28;20361;-63
2022/01/04 06:32:18;;;;;;;10.48;6.18;;;8.20;99.90;;;;;;5077035;28;20040;-63
2022/01/04 06:34:45;;;;;;;11.63;6.07;;;8.20;99.90;;;;;;5076921;28;20392;-62
2022/01/04 06:37:12;;;;;;;8.98;6.55;;;8.30;99.90;;;;;;5077006;28;20135;-62
2022/01/04 06:39:38;;;;;;;11.65;7.07;;;8.30;99.90;;;;;;5077042;28;20060;-62
2022/01/04 06:42:04;;;;;;;11.93;7.18;;;8.30;99.90;;;;;;5077424;28;20064;-62
2022/01/04 06:44:31;;;;;;;12.38;7.10;;;8.50;99.90;;;;;;5076879;28;20025;-63
2022/01/04 06:46:57;;;;;;;11.45;7.38;;;8.70;99.90;;;;;;5076826;28;20029;-64
2022/01/04 06:49:23;;;;;;;11.00;7.10;;;8.80;99.90;;;;;;5059347;28;20029;-63
2022/01/04 06:51:49;;;;;;;10.32;7.20;;;8.80;99.90;;;;;;5077093;28;20341;-63
2022/01/04 06:54:18;;;;;;;9.85;7.13;;;8.70;99.90;;;;;;5075976;28;20045;-63
2022/01/04 06:56:45;;;;;;;11.88;6.82;;;8.60;99.90;;;;;;5076740;28;20328;-62
2022/01/04 06:59:11;;;;;;;10.30;7.05;;;8.50;99.90;;;;;;5076706;28;20017;-62
2022/01/04 07:01:38;;;;;;;12.05;7.47;;;8.40;99.90;;;;;;5075895;28;20101;-63
2022/01/04 07:04:05;;;;;;;12.18;7.63;;;8.30;99.90;;;;;;5076643;28;20071;-63
2022/01/04 07:06:32;;;;;;;11.00;7.20;;;8.30;99.90;;;;;;5076954;28;20037;-63
2022/01/04 07:08:58;;;;;;;12.07;7.50;;;8.20;99.90;;;;;;5075759;28;20391;-63
2022/01/04 07:11:24;;;;;;;15.25;8.88;;;8.20;99.90;;;;;;5075800;28;20376;-62
2022/01/04 07:13:50;;;;;;;14.35;8.15;;;8.10;99.90;;;;;;5075942;28;20032;-63
2022/01/04 07:16:16;;;;;;;16.58;8.95;;;8.20;99.90;;;;;;5076568;28;20040;-62
2022/01/04 07:18:46;;;;;;;13.98;8.32;;;8.30;99.90;;;;;;5076502;28;20069;-62
2022/01/04 07:21:13;;;;;;;15.00;8.98;;;8.30;99.90;;;;;;5076308;28;20033;-62
2022/01/04 07:23:39;;;;;;;12.85;8.43;;;8.50;99.90;;;;;;5076537;28;20025;-62
2022/01/04 07:26:06;;;;;;;12.23;7.90;;;8.60;99.90;;;;;;5077700;28;20025;-63
2022/01/04 07:28:31;;;;;;;16.85;9.00;;;8.60;99.90;;;;;;5079528;28;20410;-61
2022/01/04 07:30:57;;;;;;;15.30;9.38;;;8.40;99.90;;;;;;5080259;28;20032;-62
2022/01/04 07:33:23;;;;;;;24.48;14.05;;;8.40;99.90;;;;;;5079332;28;20037;-64
2022/01/04 07:35:49;;;;;;;15.52;9.15;;;8.40;99.90;;;;;;5079904;28;20036;-62
2022/01/04 07:38:15;;;;;;;17.33;9.02;;;8.40;99.90;;;;;;5080624;28;20028;-61
2022/01/04 07:40:41;;;;;;;15.98;9.07;;;8.30;99.90;;;;;;5079888;28;20400;-61
2022/01/04 07:43:07;;;;;;;17.67;9.50;;;8.20;99.90;;;;;;5062735;28;20262;-62
2022/01/04 07:45:34;;;;;;;15.65;9.48;;;8.20;99.90;;;;;;5079923;28;20111;-61
2022/01/04 07:48:01;;;;;;;18.05;10.18;;;8.20;99.90;;;;;;5079806;28;20031;-60
2022/01/04 07:50:28;;;;;;;18.83;9.77;;;8.10;99.90;;;;;;5079828;28;20068;-62
2022/01/04 07:52:53;;;;;;;19.85;9.55;;;8.20;99.90;;;;;;5079747;28;20040;-61
2022/01/04 07:55:19;;;;;;;20.38;9.30;;;8.20;99.90;;;;;;5078954;28;20086;-62
2022/01/04 07:57:46;;;;;;;19.45;9.25;;;8.20;99.90;;;;;;5079266;28;20373;-61
2022/01/04 08:00:14;;;;;;;18.65;9.15;;;8.30;99.90;;;;;;5078755;28;20353;-64
2022/01/04 08:02:41;;;;;;;17.60;9.05;;;8.30;99.90;;;;;;5079752;28;20051;-64
2022/01/04 08:05:08;;;;;;;19.02;8.70;;;8.40;99.90;;;;;;5079372;28;20027;-61
2022/01/04 08:07:34;;;;;;;19.00;9.70;;;8.50;99.90;;;;;;5079712;28;20032;-62
2022/01/04 08:10:00;;;;;;;19.20;9.80;;;8.50;99.90;;;;;;5079531;28;20028;-62
2022/01/04 08:12:26;;;;;;;19.35;9.73;;;8.50;99.90;;;;;;5061944;28;20037;-62
2022/01/04 08:14:52;;;;;;;15.05;9.18;;;8.60;99.90;;;;;;5079491;28;20036;-61
2022/01/04 08:17:18;;;;;;;16.90;8.70;;;8.80;99.90;;;;;;5079231;28;20032;-61
2022/01/04 08:19:44;;;;;;;19.73;9.80;;;8.70;99.90;;;;;;5079149;28;20036;-61
2022/01/04 08:22:10;;;;;;;18.65;9.00;;;8.60;99.90;;;;;;5079248;28;20410;-61
2022/01/04 08:24:35;;;;;;;17.55;9.48;;;8.60;99.90;;;;;;5079260;28;20029;-61
2022/01/04 08:27:01;;;;;;;17.13;9.05;;;8.70;99.90;;;;;;5079503;28;20052;-62
2022/01/04 08:29:28;;;;;;;17.67;9.27;;;8.80;99.90;;;;;;5079101;28;20105;-62
2022/01/04 08:31:53;;;;;;;18.20;9.32;;;9.00;99.90;;;;;;5078242;28;20033;-62
2022/01/04 08:34:19;;;;;;;16.02;9.15;;;8.90;99.90;;;;;;5078303;28;20082;-63
2022/01/04 08:36:45;;;;;;;18.95;9.23;;;8.90;99.90;;;;;;5078163;28;20070;-62
2022/01/04 08:39:14;;;;;;;15.57;9.15;;;8.90;99.90;;;;;;5078353;28;20020;-62
2022/01/04 08:41:50;;;;;;;15.15;8.73;;;9.00;99.90;;;;;;5077915;28;20047;-60
2022/01/04 08:44:16;;;;;;;17.67;8.85;;;9.10;99.90;;;;;;5078599;28;20046;-61
2022/01/04 08:46:42;;;;;;;15.23;8.48;;;9.10;99.90;;;;;;5078700;28;20032;-62
2022/01/04 08:49:08;;;;;;;14.90;8.63;;;9.20;99.90;;;;;;5078734;28;20033;-61
2022/01/04 08:51:35;;;;;;;13.55;8.48;;;9.30;99.90;;;;;;5078734;28;20040;-63
2022/01/04 08:54:01;;;;;;;12.63;7.90;;;9.30;99.90;;;;;;5078736;28;20392;-63
2022/01/04 08:56:27;;;;;;;14.73;8.20;;;9.40;99.90;;;;;;5061070;28;20161;-62
2022/01/04 08:58:53;;;;;;;12.25;8.27;;;9.30;99.90;;;;;;5078485;28;20060;-62
2022/01/04 09:01:19;;;;;;;12.27;8.15;;;9.30;99.90;;;;;;5078504;28;20040;-62
2022/01/04 09:03:45;;;;;;;13.77;7.70;;;9.40;99.90;;;;;;5078465;28;20025;-62
2022/01/04 09:06:12;;;;;;;14.15;7.88;;;9.50;99.90;;;;;;5078405;28;20035;-63
2022/01/04 09:08:38;;;;;;;12.98;8.60;;;9.50;99.90;;;;;;5077568;28;20052;-63
2022/01/04 09:11:04;;;;;;;14.80;8.68;;;9.70;99.90;;;;;;5078916;28;20160;-62
2022/01/04 09:13:37;;;;;;;11.88;7.78;;;9.70;99.90;;;;;;5077429;28;20064;-63
2022/01/04 09:18:43;;;;;;;12.90;8.00;;;9.70;99.90;;;;;;5077403;28;20048;-64
2022/01/04 09:21:10;;;;;;;15.10;7.28;;;9.70;99.90;;;;;;5078065;28;20132;-63
2022/01/04 09:23:37;;;;;;;10.90;7.60;;;9.70;99.90;;;;;;5078176;28;20392;-62
2022/01/04 09:26:03;;;;;;;12.73;8.32;;;9.40;99.90;;;;;;5077965;28;20060;-63
2022/01/04 09:28:29;;;;;;;9.75;8.02;;;9.40;99.90;;;;;;5077202;28;20112;-63
2022/01/04 09:30:57;;;;;;;9.80;7.78;;;9.40;99.90;;;;;;5077016;28;20072;-62
2022/01/04 09:33:22;;;;;;;10.90;7.95;;;9.40;99.90;;;;;;5077721;28;20451;-62
2022/01/04 09:35:49;;;;;;;9.90;7.43;;;9.50;99.90;;;;;;5077520;28;20124;-63
2022/01/04 09:38:16;;;;;;;10.65;7.32;;;9.50;99.90;;;;;;5077589;28;20040;-62
2022/01/04 09:40:42;;;;;;;10.55;7.55;;;9.50;99.90;;;;;;5077544;28;20029;-62
2022/01/04 09:43:08;;;;;;;9.23;7.90;;;9.40;99.90;;;;;;5077556;28;20025;-61
2022/01/04 09:45:35;;;;;;;11.00;7.45;;;9.20;99.90;;;;;;5077634;28;20016;-61
2022/01/04 09:48:01;;;;;;;11.90;8.57;;;9.00;99.90;;;;;;5077481;28;20308;-62
2022/01/04 09:50:27;;;;;;;10.18;7.72;;;8.90;99.90;;;;;;5076133;28;20032;-62
2022/01/04 09:52:56;;;;;;;10.75;8.55;;;9.00;99.90;;;;;;5076709;28;20358;-63
2022/01/04 09:55:21;;;;;;;10.82;8.10;;;9.20;99.90;;;;;;5077520;28;20032;-63
2022/01/04 09:57:48;;;;;;;10.18;8.27;;;9.40;99.90;;;;;;5077397;28;20388;-62
2022/01/04 10:00:16;;;;;;;10.98;8.52;;;9.50;99.90;;;;;;5077296;28;20044;-63
2022/01/04 10:02:49;;;;;;;9.70;7.90;;;9.70;99.90;;;;;;5077233;28;20024;-61
2022/01/04 10:05:16;;;;;;;9.40;7.72;;;9.70;99.90;;;;;;5077909;28;20115;-63
2022/01/04 10:07:43;;;;;;;13.45;8.45;;;9.60;99.90;;;;;;5077231;28;20098;-62
2022/01/04 10:10:14;;;;;;;9.18;7.38;;;9.40;99.90;;;;;;5077194;28;20047;-60
2022/01/04 10:12:55;;;;;;;9.15;7.63;;;9.30;99.90;;;;;;5077177;28;20040;-62
2022/01/04 10:15:36;;;;;;;11.07;8.10;;;9.20;99.90;;;;;;5077163;28;20094;-63
2022/01/04 10:18:23;;;;;;;10.93;8.10;;;9.40;99.90;;;;;;5077083;28;20035;-63
2022/01/04 10:21:14;;;;;;;8.48;7.55;;;9.40;99.90;;;;;;5077036;28;20043;-60
2022/01/04 10:23:45;;;;;;;11.13;8.10;;;9.40;99.90;;;;;;5072058;28;20075;-62
2022/01/04 10:26:12;;;;;;;8.10;7.00;;;9.50;99.90;;;;;;5076928;28;20070;-62
2022/01/04 10:28:41;;;;;;;10.23;7.20;;;9.60;99.90;;;;;;5076985;28;20024;-62
2022/01/04 10:31:13;;;;;;;9.85;7.40;;;9.60;99.90;;;;;;5076248;28;20040;-63
2022/01/04 10:33:38;;;;;;;11.63;7.32;;;9.60;99.90;;;;;;5076819;28;20039;-63
2022/01/04 10:36:11;;;;;;;10.65;7.05;;;9.70;99.90;;;;;;5076751;28;20052;-64
2022/01/04 10:38:43;;;;;;;11.07;7.68;;;9.80;99.90;;;;;;5077037;28;20032;-62
2022/01/04 10:41:26;;;;;;;8.93;7.78;;;9.70;99.90;;;;;;5076866;28;20128;-62
2022/01/04 10:44:07;;;;;;;10.88;7.05;;;9.60;99.90;;;;;;5076958;28;20418;-61
2022/01/04 10:46:35;;;;;;;9.43;7.03;;;9.50;99.90;;;;;;5076831;28;20301;-61
2022/01/04 10:49:13;;;;;;;12.02;7.15;;;9.70;99.90;;;;;;5076822;28;20039;-62
2022/01/04 10:51:39;;;;;;;12.98;7.45;;;9.70;99.90;;;;;;5076830;28;20047;-61
2022/01/04 10:54:06;;;;;;;10.65;7.35;;;9.70;99.90;;;;;;5076005;28;20037;-61
2022/01/04 10:56:36;;;;;;;14.23;7.18;;;10.00;99.90;;;;;;5076728;28;20040;-62
2022/01/04 10:59:10;;;;;;;11.10;7.13;;;10.00;99.90;;;;;;5076663;28;20071;-61
2022/01/04 11:01:40;;;;;;;9.07;6.85;;;9.90;99.90;;;;;;5078716;28;20036;-63
2022/01/04 11:04:13;;;;;;;9.18;6.88;;;10.00;99.90;;;;;;5080756;28;20116;-61
2022/01/04 11:06:39;;;;;;;11.05;6.57;;;10.00;99.90;;;;;;5081289;28;20372;-63
2022/01/04 11:09:06;;;;;;;9.90;6.00;;;10.10;99.90;;;;;;5079950;28;20032;-62
2022/01/04 11:11:32;;;;;;;11.18;7.20;;;10.10;99.90;;;;;;5080537;28;20028;-63
2022/01/04 11:13:58;;;;;;;8.00;6.00;;;10.10;99.90;;;;;;5080614;28;20146;-62
2022/01/04 11:16:26;;;;;;;11.90;6.38;;;10.00;99.90;;;;;;5080464;28;20025;-63
2022/01/04 11:18:54;;;;;;;11.68;6.35;;;10.00;99.90;;;;;;5080452;28;20040;-62
2022/01/04 11:21:24;;;;;;;11.13;6.60;;;9.90;99.90;;;;;;5080288;28;20126;-63
2022/01/04 11:23:51;;;;;;;6.63;5.57;;;10.00;99.90;;;;;;5063176;28;20025;-62
2022/01/04 11:26:18;;;;;;;9.63;6.35;;;10.00;99.90;;;;;;5080302;28;20032;-62
2022/01/04 11:28:47;;;;;;;11.73;5.75;;;9.90;99.90;;;;;;5080247;28;20413;-61
2022/01/04 11:31:41;;;;;;;11.18;6.50;;;10.00;99.90;;;;;;5080790;28;20396;-62
2022/01/04 11:34:10;;;;;;;10.82;6.45;;;10.00;99.90;;;;;;5080021;28;20032;-62
2022/01/04 11:36:56;;;;;;;11.13;6.13;;;10.10;99.90;;;;;;5080239;28;20052;-62
2022/01/04 11:39:26;;;;;;;8.73;5.88;;;10.20;99.90;;;;;;5080686;28;20042;-64
2022/01/04 11:41:52;;;;;;;11.18;6.07;;;10.20;99.90;;;;;;5080011;28;20036;-63
2022/01/04 11:44:19;;;;;;;13.00;6.05;;;10.40;99.90;;;;;;5079858;28;20459;-62
2022/01/04 11:47:06;;;;;;;9.50;5.65;;;10.20;99.90;;;;;;5080123;28;20056;-63
2022/01/04 11:49:36;;;;;;;7.00;5.72;;;10.20;99.90;;;;;;5079788;28;20040;-63
2022/01/04 11:52:04;;;;;;;10.27;5.78;;;10.40;99.90;;;;;;5079667;28;20094;-63
2022/01/04 11:54:30;;;;;;;7.63;5.50;;;10.40;99.90;;;;;;5079746;28;20141;-63
2022/01/04 11:57:02;;;;;;;10.65;6.05;;;10.50;99.90;;;;;;5079059;28;20075;-61
2022/01/04 11:59:39;;;;;;;12.40;5.40;;;10.50;99.90;;;;;;5079809;28;20042;-62
2022/01/04 12:02:26;;;;;;;10.52;5.70;;;10.60;99.90;;;;;;5079517;28;20032;-62
2022/01/04 12:04:52;;;;;;;10.98;5.35;;;10.70;99.90;;;;;;5078719;28;20408;-62
2022/01/04 12:07:48;;;;;;;8.45;5.43;;;10.70;99.90;;;;;;5079650;28;20021;-62
2022/01/04 12:10:20;;;;;;;7.03;4.65;;;10.60;99.90;;;;;;5079637;28;20202;-63
2022/01/04 12:12:59;;;;;;;9.68;5.20;;;10.60;99.90;;;;;;5078513;28;20028;-65
2022/01/04 12:15:33;;;;;;;10.48;5.07;;;10.60;99.90;;;;;;5079588;28;20060;-65
2022/01/04 12:18:08;;;;;;;6.85;4.53;;;10.70;99.90;;;;;;5079380;28;20038;-63
2022/01/04 12:20:43;;;;;;;9.43;5.25;;;10.70;99.90;;;;;;5079357;28;20123;-64
2022/01/04 12:23:26;;;;;;;9.68;5.18;;;10.70;99.90;;;;;;5078457;28;20078;-62
2022/01/04 12:26:05;;;;;;;8.13;4.53;;;10.60;99.90;;;;;;5079250;28;20029;-64
2022/01/04 12:28:39;;;;;;;7.68;4.60;;;10.60;99.90;;;;;;5079149;28;20032;-62
2022/01/04 12:31:17;;;;;;;6.22;4.43;;;10.70;99.90;;;;;;5078357;28;20141;-63
2022/01/04 12:33:44;;;;;;;8.50;4.53;;;10.60;99.90;;;;;;5079290;28;20043;-63
2022/01/04 12:36:22;;;;;;;6.85;5.05;;;10.70;99.90;;;;;;5078913;28;20300;-64
2022/01/04 12:38:50;;;;;;;9.52;4.55;;;10.70;99.90;;;;;;5079066;28;20036;-64
2022/01/04 12:41:17;;;;;;;10.65;4.72;;;10.80;99.90;;;;;;5078205;28;20040;-63
2022/01/04 12:43:46;;;;;;;8.20;4.15;;;10.70;99.90;;;;;;5078990;28;20029;-63
2022/01/04 12:46:14;;;;;;;6.53;4.43;;;10.80;99.90;;;;;;5078959;28;20031;-64
2022/01/04 12:48:52;;;;;;;6.55;4.10;;;10.80;99.90;;;;;;5078822;28;20489;-62
2022/01/04 12:51:31;;;;;;;5.82;3.67;;;10.90;99.90;;;;;;5078820;28;20029;-64
2022/01/04 12:54:17;;;;;;;8.95;4.15;;;11.30;99.90;;;;;;5078691;28;20075;-62
2022/01/04 12:56:54;;;;;;;5.18;2.45;;;11.50;99.90;;;;;;5078055;28;20032;-62
2022/01/04 12:59:22;;;;;;;1.83;0.90;;;11.30;99.90;;;;;;5078815;28;20292;-63
2022/01/04 13:01:53;;;;;;;2.75;0.50;;;10.60;99.90;;;;;;5077646;28;20039;-62
2022/01/04 13:04:22;;;;;;;2.92;0.70;;;10.00;99.90;;;;;;5078486;28;20044;-62
2022/01/04 13:06:49;;;;;;;3.45;0.60;;;9.40;99.90;;;;;;5079205;28;20017;-61